sensor_id;sensor_type;location;lat;lon;timestamp;temperature;humidity
67354;SHT30;54238;52.278;21.056;2022-08-27T00:02:50;22.25;56.70
67354;SHT30;54238;52.278;21.056;2022-08-27T00:05:21;22.28;56.69
67354;SHT30;54238;52.278;21.056;2022-08-27T00:07:54;22.25;56.82
67354;SHT30;54238;52.278;21.056;2022-08-27T00:10:24;22.24;57.05
67354;SHT30;54238;52.278;21.056;2022-08-27T00:12:56;22.20;57.00
67354;SHT30;54238;52.278;21.056;2022-08-27T00:15:26;22.18;57.27
67354;SHT30;54238;52.278;21.056;2022-08-27T00:17:59;22.14;57.36
67354;SHT30;54238;52.278;21.056;2022-08-27T00:20:29;22.10;57.61
67354;SHT30;54238;52.278;21.056;2022-08-27T00:22:59;22.04;57.76
67354;SHT30;54238;52.278;21.056;2022-08-27T00:25:28;21.99;58.04
67354;SHT30;54238;52.278;21.056;2022-08-27T00:28:03;21.98;58.34
67354;SHT30;54238;52.278;21.056;2022-08-27T00:30:32;21.96;58.39
67354;SHT30;54238;52.278;21.056;2022-08-27T00:33:04;21.93;58.56
67354;SHT30;54238;52.278;21.056;2022-08-27T00:35:33;21.92;58.85
67354;SHT30;54238;52.278;21.056;2022-08-27T00:38:04;21.88;58.96
67354;SHT30;54238;52.278;21.056;2022-08-27T00:40:36;21.86;59.16
67354;SHT30;54238;52.278;21.056;2022-08-27T00:43:08;21.81;59.31
67354;SHT30;54238;52.278;21.056;2022-08-27T00:45:39;21.78;59.41
67354;SHT30;54238;52.278;21.056;2022-08-27T00:48:12;21.73;59.50
67354;SHT30;54238;52.278;21.056;2022-08-27T00:50:46;21.68;59.77
67354;SHT30;54238;52.278;21.056;2022-08-27T00:53:22;21.66;59.83
67354;SHT30;54238;52.278;21.056;2022-08-27T00:56:09;21.64;60.20
67354;SHT30;54238;52.278;21.056;2022-08-27T00:58:50;21.65;60.39
67354;SHT30;54238;52.278;21.056;2022-08-27T01:01:22;21.64;60.27
67354;SHT30;54238;52.278;21.056;2022-08-27T01:03:57;21.65;60.06
67354;SHT30;54238;52.278;21.056;2022-08-27T01:06:31;21.68;60.24
67354;SHT30;54238;52.278;21.056;2022-08-27T01:09:09;21.66;60.25
67354;SHT30;54238;52.278;21.056;2022-08-27T01:11:42;21.63;60.56
67354;SHT30;54238;52.278;21.056;2022-08-27T01:14:17;21.61;60.69
67354;SHT30;54238;52.278;21.056;2022-08-27T01:16:47;21.58;60.94
67354;SHT30;54238;52.278;21.056;2022-08-27T01:19:42;21.55;61.11
67354;SHT30;54238;52.278;21.056;2022-08-27T01:25:13;21.51;61.56
67354;SHT30;54238;52.278;21.056;2022-08-27T01:27:44;21.49;61.58
67354;SHT30;54238;52.278;21.056;2022-08-27T01:30:17;21.47;61.61
67354;SHT30;54238;52.278;21.056;2022-08-27T01:32:50;21.45;61.51
67354;SHT30;54238;52.278;21.056;2022-08-27T01:35:22;21.44;61.70
67354;SHT30;54238;52.278;21.056;2022-08-27T01:37:53;21.40;61.81
67354;SHT30;54238;52.278;21.056;2022-08-27T01:40:23;21.35;61.85
67354;SHT30;54238;52.278;21.056;2022-08-27T01:42:51;21.31;62.06
67354;SHT30;54238;52.278;21.056;2022-08-27T01:45:25;21.27;62.26
67354;SHT30;54238;52.278;21.056;2022-08-27T01:47:58;21.23;62.53
67354;SHT30;54238;52.278;21.056;2022-08-27T01:50:32;21.18;62.77
67354;SHT30;54238;52.278;21.056;2022-08-27T01:53:05;21.11;62.90
67354;SHT30;54238;52.278;21.056;2022-08-27T01:55:44;21.06;63.06
67354;SHT30;54238;52.278;21.056;2022-08-27T01:58:14;21.01;63.45
67354;SHT30;54238;52.278;21.056;2022-08-27T02:00:44;20.93;63.78
67354;SHT30;54238;52.278;21.056;2022-08-27T02:03:18;20.89;64.02
67354;SHT30;54238;52.278;21.056;2022-08-27T02:05:46;20.88;64.20
67354;SHT30;54238;52.278;21.056;2022-08-27T02:08:14;20.88;64.29
67354;SHT30;54238;52.278;21.056;2022-08-27T02:10:47;20.88;64.35
67354;SHT30;54238;52.278;21.056;2022-08-27T02:13:20;20.84;64.44
67354;SHT30;54238;52.278;21.056;2022-08-27T02:15:50;20.83;64.62
67354;SHT30;54238;52.278;21.056;2022-08-27T02:18:25;20.83;64.70
67354;SHT30;54238;52.278;21.056;2022-08-27T02:20:56;20.82;64.85
67354;SHT30;54238;52.278;21.056;2022-08-27T02:23:28;20.82;64.88
67354;SHT30;54238;52.278;21.056;2022-08-27T02:25:58;20.79;64.98
67354;SHT30;54238;52.278;21.056;2022-08-27T02:28:29;20.78;65.06
67354;SHT30;54238;52.278;21.056;2022-08-27T02:31:01;20.78;65.09
67354;SHT30;54238;52.278;21.056;2022-08-27T02:33:31;20.76;65.22
67354;SHT30;54238;52.278;21.056;2022-08-27T02:36:00;20.74;65.16
67354;SHT30;54238;52.278;21.056;2022-08-27T02:38:32;20.72;65.40
67354;SHT30;54238;52.278;21.056;2022-08-27T02:41:02;20.71;65.55
67354;SHT30;54238;52.278;21.056;2022-08-27T02:43:31;20.69;65.59
67354;SHT30;54238;52.278;21.056;2022-08-27T02:46:04;20.68;65.75
67354;SHT30;54238;52.278;21.056;2022-08-27T02:48:35;20.68;65.84
67354;SHT30;54238;52.278;21.056;2022-08-27T02:51:07;20.66;66.00
67354;SHT30;54238;52.278;21.056;2022-08-27T02:53:36;20.66;66.13
67354;SHT30;54238;52.278;21.056;2022-08-27T02:56:08;20.66;66.12
67354;SHT30;54238;52.278;21.056;2022-08-27T02:58:38;20.65;66.11
67354;SHT30;54238;52.278;21.056;2022-08-27T03:01:08;20.64;66.25
67354;SHT30;54238;52.278;21.056;2022-08-27T03:03:37;20.62;66.41
67354;SHT30;54238;52.278;21.056;2022-08-27T03:06:07;20.59;66.42
67354;SHT30;54238;52.278;21.056;2022-08-27T03:08:37;20.54;66.40
67354;SHT30;54238;52.278;21.056;2022-08-27T03:11:05;20.50;66.48
67354;SHT30;54238;52.278;21.056;2022-08-27T03:13:39;20.48;66.65
67354;SHT30;54238;52.278;21.056;2022-08-27T03:16:06;20.46;66.68
67354;SHT30;54238;52.278;21.056;2022-08-27T03:18:36;20.42;66.79
67354;SHT30;54238;52.278;21.056;2022-08-27T03:21:06;20.42;66.80
67354;SHT30;54238;52.278;21.056;2022-08-27T03:23:34;20.39;66.83
67354;SHT30;54238;52.278;21.056;2022-08-27T03:26:04;20.39;66.91
67354;SHT30;54238;52.278;21.056;2022-08-27T03:28:40;20.36;66.95
67354;SHT30;54238;52.278;21.056;2022-08-27T03:31:13;20.32;67.02
67354;SHT30;54238;52.278;21.056;2022-08-27T03:33:56;20.26;67.22
67354;SHT30;54238;52.278;21.056;2022-08-27T03:36:29;20.23;67.31
67354;SHT30;54238;52.278;21.056;2022-08-27T03:38:59;20.22;67.45
67354;SHT30;54238;52.278;21.056;2022-08-27T03:41:29;20.21;67.44
67354;SHT30;54238;52.278;21.056;2022-08-27T03:44:03;20.15;67.42
67354;SHT30;54238;52.278;21.056;2022-08-27T03:46:30;20.10;67.60
67354;SHT30;54238;52.278;21.056;2022-08-27T03:49:03;20.09;67.72
67354;SHT30;54238;52.278;21.056;2022-08-27T03:51:33;20.07;67.67
67354;SHT30;54238;52.278;21.056;2022-08-27T03:54:05;20.04;67.77
67354;SHT30;54238;52.278;21.056;2022-08-27T03:56:32;20.03;67.92
67354;SHT30;54238;52.278;21.056;2022-08-27T03:59:05;20.04;68.07
67354;SHT30;54238;52.278;21.056;2022-08-27T04:01:34;20.03;68.09
67354;SHT30;54238;52.278;21.056;2022-08-27T04:04:06;20.02;68.15
67354;SHT30;54238;52.278;21.056;2022-08-27T04:06:34;20.03;68.18
67354;SHT30;54238;52.278;21.056;2022-08-27T04:09:08;20.01;68.33
67354;SHT30;54238;52.278;21.056;2022-08-27T04:11:35;19.99;68.40
67354;SHT30;54238;52.278;21.056;2022-08-27T04:14:03;20.00;68.31
67354;SHT30;54238;52.278;21.056;2022-08-27T04:16:35;20.02;68.27
67354;SHT30;54238;52.278;21.056;2022-08-27T04:19:05;20.03;68.36
67354;SHT30;54238;52.278;21.056;2022-08-27T04:21:32;20.01;68.37
67354;SHT30;54238;52.278;21.056;2022-08-27T04:24:05;20.00;68.41
67354;SHT30;54238;52.278;21.056;2022-08-27T04:26:37;20.01;68.43
67354;SHT30;54238;52.278;21.056;2022-08-27T04:29:13;20.00;68.46
67354;SHT30;54238;52.278;21.056;2022-08-27T04:31:43;19.99;68.55
67354;SHT30;54238;52.278;21.056;2022-08-27T04:34:15;20.01;68.49
67354;SHT30;54238;52.278;21.056;2022-08-27T04:36:45;20.04;68.43
67354;SHT30;54238;52.278;21.056;2022-08-27T04:39:13;20.05;68.43
67354;SHT30;54238;52.278;21.056;2022-08-27T04:41:43;20.07;68.42
67354;SHT30;54238;52.278;21.056;2022-08-27T04:44:10;20.08;68.49
67354;SHT30;54238;52.278;21.056;2022-08-27T04:46:44;20.09;68.54
67354;SHT30;54238;52.278;21.056;2022-08-27T04:49:14;20.09;68.62
67354;SHT30;54238;52.278;21.056;2022-08-27T04:51:46;20.11;68.55
67354;SHT30;54238;52.278;21.056;2022-08-27T04:54:18;20.14;68.34
67354;SHT30;54238;52.278;21.056;2022-08-27T04:56:45;20.15;68.23
67354;SHT30;54238;52.278;21.056;2022-08-27T04:59:19;20.15;68.37
67354;SHT30;54238;52.278;21.056;2022-08-27T05:01:52;20.15;68.33
67354;SHT30;54238;52.278;21.056;2022-08-27T05:04:21;20.15;68.29
67354;SHT30;54238;52.278;21.056;2022-08-27T05:06:51;20.16;68.48
67354;SHT30;54238;52.278;21.056;2022-08-27T05:09:18;20.17;68.50
67354;SHT30;54238;52.278;21.056;2022-08-27T05:11:50;20.19;68.38
67354;SHT30;54238;52.278;21.056;2022-08-27T05:14:20;20.25;68.42
67354;SHT30;54238;52.278;21.056;2022-08-27T05:16:56;20.30;68.46
67354;SHT30;54238;52.278;21.056;2022-08-27T05:19:27;20.34;68.44
67354;SHT30;54238;52.278;21.056;2022-08-27T05:21:54;20.41;68.37
67354;SHT30;54238;52.278;21.056;2022-08-27T05:24:24;20.45;68.35
67354;SHT30;54238;52.278;21.056;2022-08-27T05:26:53;20.51;68.19
67354;SHT30;54238;52.278;21.056;2022-08-27T05:29:25;20.57;68.10
67354;SHT30;54238;52.278;21.056;2022-08-27T05:31:54;20.59;68.01
67354;SHT30;54238;52.278;21.056;2022-08-27T05:34:26;20.63;67.79
67354;SHT30;54238;52.278;21.056;2022-08-27T05:36:56;20.66;67.75
67354;SHT30;54238;52.278;21.056;2022-08-27T05:39:26;20.71;67.74
67354;SHT30;54238;52.278;21.056;2022-08-27T05:41:57;20.77;67.70
67354;SHT30;54238;52.278;21.056;2022-08-27T05:44:29;20.84;67.51
67354;SHT30;54238;52.278;21.056;2022-08-27T05:46:56;20.90;67.31
67354;SHT30;54238;52.278;21.056;2022-08-27T05:49:30;20.96;67.38
67354;SHT30;54238;52.278;21.056;2022-08-27T05:52:02;21.02;67.34
67354;SHT30;54238;52.278;21.056;2022-08-27T05:54:35;21.08;67.32
67354;SHT30;54238;52.278;21.056;2022-08-27T05:57:05;21.15;67.02
67354;SHT30;54238;52.278;21.056;2022-08-27T05:59:32;21.23;66.78
67354;SHT30;54238;52.278;21.056;2022-08-27T06:02:19;21.33;66.55
67354;SHT30;54238;52.278;21.056;2022-08-27T06:04:53;21.45;66.36
67354;SHT30;54238;52.278;21.056;2022-08-27T06:07:21;21.57;66.39
67354;SHT30;54238;52.278;21.056;2022-08-27T06:09:48;21.69;65.99
67354;SHT30;54238;52.278;21.056;2022-08-27T06:12:18;21.81;65.78
67354;SHT30;54238;52.278;21.056;2022-08-27T06:14:45;21.91;65.72
67354;SHT30;54238;52.278;21.056;2022-08-27T06:17:14;22.02;65.44
67354;SHT30;54238;52.278;21.056;2022-08-27T06:19:42;22.12;65.28
67354;SHT30;54238;52.278;21.056;2022-08-27T06:22:13;22.23;65.03
67354;SHT30;54238;52.278;21.056;2022-08-27T06:24:42;22.35;64.97
67354;SHT30;54238;52.278;21.056;2022-08-27T06:27:13;22.46;64.82
67354;SHT30;54238;52.278;21.056;2022-08-27T06:29:45;22.58;64.48
67354;SHT30;54238;52.278;21.056;2022-08-27T06:32:12;22.71;64.24
67354;SHT30;54238;52.278;21.056;2022-08-27T06:34:45;22.83;64.03
67354;SHT30;54238;52.278;21.056;2022-08-27T06:37:12;22.95;63.85
67354;SHT30;54238;52.278;21.056;2022-08-27T06:39:42;23.09;63.45
67354;SHT30;54238;52.278;21.056;2022-08-27T06:42:14;23.26;63.24
67354;SHT30;54238;52.278;21.056;2022-08-27T06:44:45;23.42;62.86
67354;SHT30;54238;52.278;21.056;2022-08-27T06:47:13;23.58;62.18
67354;SHT30;54238;52.278;21.056;2022-08-27T06:49:42;23.75;61.72
67354;SHT30;54238;52.278;21.056;2022-08-27T06:52:12;23.92;61.32
67354;SHT30;54238;52.278;21.056;2022-08-27T06:54:44;24.06;60.88
67354;SHT30;54238;52.278;21.056;2022-08-27T06:57:16;24.17;60.54
67354;SHT30;54238;52.278;21.056;2022-08-27T06:59:45;24.29;60.27
67354;SHT30;54238;52.278;21.056;2022-08-27T07:02:12;24.43;59.90
67354;SHT30;54238;52.278;21.056;2022-08-27T07:04:44;24.57;59.20
67354;SHT30;54238;52.278;21.056;2022-08-27T07:07:16;24.70;58.54
67354;SHT30;54238;52.278;21.056;2022-08-27T07:09:45;24.86;58.10
67354;SHT30;54238;52.278;21.056;2022-08-27T07:12:19;25.01;57.70
67354;SHT30;54238;52.278;21.056;2022-08-27T07:14:47;25.14;57.61
67354;SHT30;54238;52.278;21.056;2022-08-27T07:17:16;25.28;57.34
67354;SHT30;54238;52.278;21.056;2022-08-27T07:19:44;25.44;56.43
67354;SHT30;54238;52.278;21.056;2022-08-27T07:22:13;25.58;56.57
67354;SHT30;54238;52.278;21.056;2022-08-27T07:24:43;25.71;56.45
67354;SHT30;54238;52.278;21.056;2022-08-27T07:27:10;25.84;56.33
67354;SHT30;54238;52.278;21.056;2022-08-27T07:29:39;25.97;55.58
67354;SHT30;54238;52.278;21.056;2022-08-27T07:32:11;26.10;55.24
67354;SHT30;54238;52.278;21.056;2022-08-27T07:34:44;26.22;55.09
67354;SHT30;54238;52.278;21.056;2022-08-27T07:37:13;26.34;54.76
67354;SHT30;54238;52.278;21.056;2022-08-27T07:39:42;26.48;54.49
67354;SHT30;54238;52.278;21.056;2022-08-27T07:42:12;26.59;53.92
67354;SHT30;54238;52.278;21.056;2022-08-27T07:45:02;26.72;53.72
67354;SHT30;54238;52.278;21.056;2022-08-27T07:47:30;26.83;53.48
67354;SHT30;54238;52.278;21.056;2022-08-27T07:50:00;26.93;52.26
67354;SHT30;54238;52.278;21.056;2022-08-27T07:52:31;27.07;51.50
67354;SHT30;54238;52.278;21.056;2022-08-27T07:54:59;27.21;51.15
67354;SHT30;54238;52.278;21.056;2022-08-27T07:57:27;27.35;51.05
67354;SHT30;54238;52.278;21.056;2022-08-27T07:59:59;27.47;50.14
67354;SHT30;54238;52.278;21.056;2022-08-27T08:02:28;27.62;49.95
67354;SHT30;54238;52.278;21.056;2022-08-27T08:04:58;27.77;49.55
67354;SHT30;54238;52.278;21.056;2022-08-27T08:07:30;27.92;49.71
67354;SHT30;54238;52.278;21.056;2022-08-27T08:10:00;28.08;48.18
67354;SHT30;54238;52.278;21.056;2022-08-27T08:12:33;28.24;47.94
67354;SHT30;54238;52.278;21.056;2022-08-27T08:15:05;28.39;47.66
67354;SHT30;54238;52.278;21.056;2022-08-27T08:17:42;28.50;47.08
67354;SHT30;54238;52.278;21.056;2022-08-27T08:20:12;28.59;46.73
67354;SHT30;54238;52.278;21.056;2022-08-27T08:22:41;28.70;46.92
67354;SHT30;54238;52.278;21.056;2022-08-27T08:25:11;28.82;47.05
67354;SHT30;54238;52.278;21.056;2022-08-27T08:27:40;28.91;46.91
67354;SHT30;54238;52.278;21.056;2022-08-27T08:30:09;29.01;47.18
67354;SHT30;54238;52.278;21.056;2022-08-27T08:32:42;29.09;47.11
67354;SHT30;54238;52.278;21.056;2022-08-27T08:35:12;29.24;46.82
67354;SHT30;54238;52.278;21.056;2022-08-27T08:37:44;29.40;46.08
67354;SHT30;54238;52.278;21.056;2022-08-27T08:40:32;29.51;45.92
67354;SHT30;54238;52.278;21.056;2022-08-27T08:43:12;29.70;45.51
67354;SHT30;54238;52.278;21.056;2022-08-27T08:45:55;29.89;45.20
67354;SHT30;54238;52.278;21.056;2022-08-27T08:48:39;30.11;45.14
67354;SHT30;54238;52.278;21.056;2022-08-27T08:51:31;30.29;44.52
67354;SHT30;54238;52.278;21.056;2022-08-27T08:54:09;30.50;43.90
67354;SHT30;54238;52.278;21.056;2022-08-27T08:56:56;30.63;43.19
67354;SHT30;54238;52.278;21.056;2022-08-27T08:59:36;30.81;42.78
67354;SHT30;54238;52.278;21.056;2022-08-27T09:02:09;31.04;42.60
67354;SHT30;54238;52.278;21.056;2022-08-27T09:04:43;31.32;42.33
67354;SHT30;54238;52.278;21.056;2022-08-27T09:09:50;31.81;40.78
67354;SHT30;54238;52.278;21.056;2022-08-27T09:12:36;31.93;39.78
67354;SHT30;54238;52.278;21.056;2022-08-27T09:15:10;32.04;39.55
67354;SHT30;54238;52.278;21.056;2022-08-27T09:17:47;32.18;39.92
67354;SHT30;54238;52.278;21.056;2022-08-27T09:20:20;32.42;39.84
67354;SHT30;54238;52.278;21.056;2022-08-27T09:23:00;32.68;39.53
67354;SHT30;54238;52.278;21.056;2022-08-27T09:25:49;32.87;39.36
67354;SHT30;54238;52.278;21.056;2022-08-27T09:28:26;33.08;38.88
67354;SHT30;54238;52.278;21.056;2022-08-27T09:31:18;33.33;37.89
67354;SHT30;54238;52.278;21.056;2022-08-27T09:33:49;33.54;37.53
67354;SHT30;54238;52.278;21.056;2022-08-27T09:36:21;33.72;36.83
67354;SHT30;54238;52.278;21.056;2022-08-27T09:39:02;33.90;36.56
67354;SHT30;54238;52.278;21.056;2022-08-27T09:41:46;34.23;36.34
67354;SHT30;54238;52.278;21.056;2022-08-27T09:44:19;34.60;35.77
67354;SHT30;54238;52.278;21.056;2022-08-27T09:46:54;34.81;34.96
67354;SHT30;54238;52.278;21.056;2022-08-27T09:49:25;35.01;34.25
67354;SHT30;54238;52.278;21.056;2022-08-27T09:51:52;35.23;33.28
67354;SHT30;54238;52.278;21.056;2022-08-27T09:54:26;35.38;33.30
67354;SHT30;54238;52.278;21.056;2022-08-27T09:57:05;35.72;32.93
67354;SHT30;54238;52.278;21.056;2022-08-27T09:59:51;36.04;32.12
67354;SHT30;54238;52.278;21.056;2022-08-27T10:02:26;36.36;31.84
67354;SHT30;54238;52.278;21.056;2022-08-27T10:04:56;36.60;31.75
67354;SHT30;54238;52.278;21.056;2022-08-27T10:07:48;36.72;30.94
67354;SHT30;54238;52.278;21.056;2022-08-27T10:19:20;37.17;30.41
67354;SHT30;54238;52.278;21.056;2022-08-27T10:25:10;37.29;29.71
67354;SHT30;54238;52.278;21.056;2022-08-27T10:32:05;37.75;29.55
67354;SHT30;54238;52.278;21.056;2022-08-27T10:35:06;38.08;29.12
67354;SHT30;54238;52.278;21.056;2022-08-27T10:37:51;38.40;28.17
67354;SHT30;54238;52.278;21.056;2022-08-27T10:43:43;39.33;26.16
67354;SHT30;54238;52.278;21.056;2022-08-27T10:55:23;39.94;23.77
67354;SHT30;54238;52.278;21.056;2022-08-27T11:04:20;40.13;22.15
67354;SHT30;54238;52.278;21.056;2022-08-27T11:07:06;40.20;22.47
67354;SHT30;54238;52.278;21.056;2022-08-27T11:12:27;40.44;22.39
67354;SHT30;54238;52.278;21.056;2022-08-27T11:15:04;40.60;22.29
67354;SHT30;54238;52.278;21.056;2022-08-27T11:20:56;40.95;20.48
67354;SHT30;54238;52.278;21.056;2022-08-27T11:23:45;41.14;20.80
67354;SHT30;54238;52.278;21.056;2022-08-27T11:26:24;41.51;20.16
67354;SHT30;54238;52.278;21.056;2022-08-27T11:28:57;41.81;19.76
67354;SHT30;54238;52.278;21.056;2022-08-27T11:31:47;42.03;19.21
67354;SHT30;54238;52.278;21.056;2022-08-27T11:42:50;42.18;19.25
67354;SHT30;54238;52.278;21.056;2022-08-27T11:45:31;42.35;18.88
67354;SHT30;54238;52.278;21.056;2022-08-27T11:54:41;42.81;18.44
67354;SHT30;54238;52.278;21.056;2022-08-27T11:57:26;42.96;18.29
67354;SHT30;54238;52.278;21.056;2022-08-27T12:00:23;43.10;17.78
67354;SHT30;54238;52.278;21.056;2022-08-27T12:03:08;43.15;17.49
67354;SHT30;54238;52.278;21.056;2022-08-27T12:08:30;43.69;16.42
67354;SHT30;54238;52.278;21.056;2022-08-27T12:13:59;43.80;16.36
67354;SHT30;54238;52.278;21.056;2022-08-27T12:32:18;44.37;16.59
67354;SHT30;54238;52.278;21.056;2022-08-27T12:37:35;44.92;15.94
67354;SHT30;54238;52.278;21.056;2022-08-27T12:46:00;45.22;15.63
67354;SHT30;54238;52.278;21.056;2022-08-27T12:48:42;44.73;15.77
67354;SHT30;54238;52.278;21.056;2022-08-27T13:05:40;40.85;17.00
67354;SHT30;54238;52.278;21.056;2022-08-27T13:08:33;41.10;16.90
67354;SHT30;54238;52.278;21.056;2022-08-27T13:11:09;41.23;16.98
67354;SHT30;54238;52.278;21.056;2022-08-27T13:13:43;41.18;17.10
67354;SHT30;54238;52.278;21.056;2022-08-27T13:16:23;41.12;17.22
67354;SHT30;54238;52.278;21.056;2022-08-27T13:18:57;41.15;17.24
67354;SHT30;54238;52.278;21.056;2022-08-27T13:21:32;41.39;17.02
67354;SHT30;54238;52.278;21.056;2022-08-27T13:24:03;41.13;17.21
67354;SHT30;54238;52.278;21.056;2022-08-27T13:27:08;40.44;17.49
67354;SHT30;54238;52.278;21.056;2022-08-27T13:29:40;39.87;18.04
67354;SHT30;54238;52.278;21.056;2022-08-27T13:32:10;39.44;18.15
67354;SHT30;54238;52.278;21.056;2022-08-27T13:34:45;38.97;18.63
67354;SHT30;54238;52.278;21.056;2022-08-27T13:40:22;38.57;18.65
67354;SHT30;54238;52.278;21.056;2022-08-27T13:43:09;38.49;18.89
67354;SHT30;54238;52.278;21.056;2022-08-27T13:45:39;38.39;19.00
67354;SHT30;54238;52.278;21.056;2022-08-27T13:48:08;38.57;19.10
67354;SHT30;54238;52.278;21.056;2022-08-27T13:50:48;38.25;19.86
67354;SHT30;54238;52.278;21.056;2022-08-27T13:53:23;37.94;19.39
67354;SHT30;54238;52.278;21.056;2022-08-27T14:04:46;37.23;20.54
67354;SHT30;54238;52.278;21.056;2022-08-27T14:07:33;36.94;21.10
67354;SHT30;54238;52.278;21.056;2022-08-27T14:10:08;36.71;21.53
67354;SHT30;54238;52.278;21.056;2022-08-27T14:13:41;36.42;21.14
67354;SHT30;54238;52.278;21.056;2022-08-27T14:18:52;35.98;22.18
67354;SHT30;54238;52.278;21.056;2022-08-27T14:21:43;35.94;23.09
67354;SHT30;54238;52.278;21.056;2022-08-27T14:24:12;36.20;23.35
67354;SHT30;54238;52.278;21.056;2022-08-27T14:26:39;36.32;24.31
67354;SHT30;54238;52.278;21.056;2022-08-27T14:29:10;36.52;23.72
67354;SHT30;54238;52.278;21.056;2022-08-27T14:31:37;36.67;22.87
67354;SHT30;54238;52.278;21.056;2022-08-27T14:34:07;36.72;23.40
67354;SHT30;54238;52.278;21.056;2022-08-27T14:36:37;36.77;22.46
67354;SHT30;54238;52.278;21.056;2022-08-27T14:39:10;36.88;22.69
67354;SHT30;54238;52.278;21.056;2022-08-27T14:41:40;37.17;21.49
67354;SHT30;54238;52.278;21.056;2022-08-27T14:44:07;37.63;20.78
67354;SHT30;54238;52.278;21.056;2022-08-27T14:46:37;38.12;21.00
67354;SHT30;54238;52.278;21.056;2022-08-27T14:49:10;38.61;20.71
67354;SHT30;54238;52.278;21.056;2022-08-27T14:51:45;38.91;20.47
67354;SHT30;54238;52.278;21.056;2022-08-27T14:54:17;39.18;20.54
67354;SHT30;54238;52.278;21.056;2022-08-27T14:56:46;39.50;20.87
67354;SHT30;54238;52.278;21.056;2022-08-27T14:59:16;39.79;20.49
67354;SHT30;54238;52.278;21.056;2022-08-27T15:01:45;40.16;20.86
67354;SHT30;54238;52.278;21.056;2022-08-27T15:04:13;40.43;20.09
67354;SHT30;54238;52.278;21.056;2022-08-27T15:06:41;40.78;19.76
67354;SHT30;54238;52.278;21.056;2022-08-27T15:09:08;40.98;19.34
67354;SHT30;54238;52.278;21.056;2022-08-27T15:11:42;40.99;19.29
67354;SHT30;54238;52.278;21.056;2022-08-27T15:14:26;40.95;19.29
67354;SHT30;54238;52.278;21.056;2022-08-27T15:17:03;41.09;19.51
67354;SHT30;54238;52.278;21.056;2022-08-27T15:19:38;41.06;19.28
67354;SHT30;54238;52.278;21.056;2022-08-27T15:22:16;41.07;19.62
67354;SHT30;54238;52.278;21.056;2022-08-27T15:24:50;40.97;19.48
67354;SHT30;54238;52.278;21.056;2022-08-27T15:27:24;40.47;19.65
67354;SHT30;54238;52.278;21.056;2022-08-27T15:29:58;39.96;20.05
67354;SHT30;54238;52.278;21.056;2022-08-27T15:32:31;39.52;20.61
67354;SHT30;54238;52.278;21.056;2022-08-27T15:35:09;39.29;20.97
67354;SHT30;54238;52.278;21.056;2022-08-27T15:37:40;39.14;21.32
67354;SHT30;54238;52.278;21.056;2022-08-27T15:40:14;39.08;21.49
67354;SHT30;54238;52.278;21.056;2022-08-27T15:42:43;38.85;21.25
67354;SHT30;54238;52.278;21.056;2022-08-27T15:45:18;38.43;21.32
67354;SHT30;54238;52.278;21.056;2022-08-27T15:47:48;37.93;21.81
67354;SHT30;54238;52.278;21.056;2022-08-27T15:50:20;37.44;22.14
67354;SHT30;54238;52.278;21.056;2022-08-27T15:52:50;36.99;22.39
67354;SHT30;54238;52.278;21.056;2022-08-27T15:55:36;36.56;23.04
67354;SHT30;54238;52.278;21.056;2022-08-27T15:58:10;36.33;23.59
67354;SHT30;54238;52.278;21.056;2022-08-27T16:00:40;36.26;23.48
67354;SHT30;54238;52.278;21.056;2022-08-27T16:03:11;36.23;23.83
67354;SHT30;54238;52.278;21.056;2022-08-27T16:05:44;36.21;24.05
67354;SHT30;54238;52.278;21.056;2022-08-27T16:08:14;36.22;24.17
67354;SHT30;54238;52.278;21.056;2022-08-27T16:10:45;36.16;24.22
67354;SHT30;54238;52.278;21.056;2022-08-27T16:13:17;36.11;24.04
67354;SHT30;54238;52.278;21.056;2022-08-27T16:15:45;36.06;24.19
67354;SHT30;54238;52.278;21.056;2022-08-27T16:18:14;36.04;24.30
67354;SHT30;54238;52.278;21.056;2022-08-27T16:20:49;35.98;24.34
67354;SHT30;54238;52.278;21.056;2022-08-27T16:23:23;35.81;24.74
67354;SHT30;54238;52.278;21.056;2022-08-27T16:25:54;35.63;24.59
67354;SHT30;54238;52.278;21.056;2022-08-27T16:28:26;35.45;24.68
67354;SHT30;54238;52.278;21.056;2022-08-27T16:30:54;35.22;24.84
67354;SHT30;54238;52.278;21.056;2022-08-27T16:33:25;34.97;24.96
67354;SHT30;54238;52.278;21.056;2022-08-27T16:36:01;34.75;25.25
67354;SHT30;54238;52.278;21.056;2022-08-27T16:38:29;34.55;25.46
67354;SHT30;54238;52.278;21.056;2022-08-27T16:40:56;34.35;25.88
67354;SHT30;54238;52.278;21.056;2022-08-27T16:43:25;34.12;26.11
67354;SHT30;54238;52.278;21.056;2022-08-27T16:45:55;33.92;26.35
67354;SHT30;54238;52.278;21.056;2022-08-27T16:48:30;33.71;26.64
67354;SHT30;54238;52.278;21.056;2022-08-27T16:51:21;33.44;26.93
67354;SHT30;54238;52.278;21.056;2022-08-27T16:53:57;33.16;27.18
67354;SHT30;54238;52.278;21.056;2022-08-27T16:56:24;32.89;27.66
67354;SHT30;54238;52.278;21.056;2022-08-27T16:58:52;32.62;27.98
67354;SHT30;54238;52.278;21.056;2022-08-27T17:01:24;32.37;28.27
67354;SHT30;54238;52.278;21.056;2022-08-27T17:03:54;32.10;28.52
67354;SHT30;54238;52.278;21.056;2022-08-27T17:06:27;31.89;28.80
67354;SHT30;54238;52.278;21.056;2022-08-27T17:08:59;31.68;29.22
67354;SHT30;54238;52.278;21.056;2022-08-27T17:11:32;31.46;29.43
67354;SHT30;54238;52.278;21.056;2022-08-27T17:14:10;31.28;30.03
67354;SHT30;54238;52.278;21.056;2022-08-27T17:16:38;31.07;30.18
67354;SHT30;54238;52.278;21.056;2022-08-27T17:19:07;30.90;30.60
67354;SHT30;54238;52.278;21.056;2022-08-27T17:21:36;30.74;30.93
67354;SHT30;54238;52.278;21.056;2022-08-27T17:24:09;30.57;31.18
67354;SHT30;54238;52.278;21.056;2022-08-27T17:26:39;30.40;31.53
67354;SHT30;54238;52.278;21.056;2022-08-27T17:29:09;30.23;31.86
67354;SHT30;54238;52.278;21.056;2022-08-27T17:31:42;30.08;32.02
67354;SHT30;54238;52.278;21.056;2022-08-27T17:34:11;29.94;32.36
67354;SHT30;54238;52.278;21.056;2022-08-27T17:36:47;29.77;32.66
67354;SHT30;54238;52.278;21.056;2022-08-27T17:39:16;29.63;32.76
67354;SHT30;54238;52.278;21.056;2022-08-27T17:41:46;29.48;33.12
67354;SHT30;54238;52.278;21.056;2022-08-27T17:44:31;29.33;33.37
67354;SHT30;54238;52.278;21.056;2022-08-27T17:47:03;29.18;33.58
67354;SHT30;54238;52.278;21.056;2022-08-27T17:49:38;29.05;33.87
67354;SHT30;54238;52.278;21.056;2022-08-27T17:52:08;28.93;34.05
67354;SHT30;54238;52.278;21.056;2022-08-27T17:54:43;28.80;34.17